Capital City

About
Name: Capital City
Identifier:  FFT/KFFT
Local Time:  20. Aug 09:39 EDT
Location
Capital City
  United States

Flights per Day
0 flights
Distance: 254km (158mi)
Punctuality
75% (0 flights per day delayed)
Delay Average: 16 minutes
Current Weather
 27 C (Humidity: 74%)
  3kt (5km/h / 3mph) from 240°
  16km (10 mi.)
 
 METAR KFFT 201253Z AUTO 24003KT 10SM CLR 27/22 A3005 RMK AO2 SLP167 T02670222

Current Flights

Departures
Number Departure To Airline
Arrivals
Number Arrival From Airline

Current Delays

Departures
N/A
Arrivals
N/A

Destinations

Top Destinations
Airport Flights
per week
Seats
per week
  Cincinnati (LUK) 2 - 0 0
  Louisville (LOU) 0 - 0 0
  Nashville (BNA) 0 - 0 0
  Somerset (SME) 0 - 0 0
  London (LOZ) 0 - 0 0
  Hilton Head Island (HHH) 0 - 0 0
  Crossett (CRT) 0 - 0 0
  Atlanta (PDK) 0 - 0 0
  Atlanta (QQR) 0 - 0 0
  White Plains (HPN) 0 - 0 0
  Lexington (LEX) 0 - 0 0

Airlines & Planes

Top Airlines
Airline Flights
per Day
Seats
per Day
Jet Charter Inc ( Franklin Lakes Nj ) 1 -
  National Airlines 0 -
Nordwind Airlines 0 -
  Nolinor Aviation 0 -
Top Plane Types
Model Flights Seats
Beech A100 King Air 0.4/day - 0
Cirrus SR22 0.4/day - 0
Piper PA28R-201T Turbo Arrow IV 0.1/day - 0
Cessna C340 0.1/day - 0
Beech 58 0.1/day - 0
Beech B200 Super King Air 0.1/day - 0
Cessna C182 0.1/day - 0
Cessna C525 0.1/day - 0